Quimper, France

12:00 AM CEST on September 20, 2014 (GMT +0200)
Pluguffan | Change Station
CLOSE
Current Station
Airport
Location: Quimper,
Elevation: 308 ft
Nearby Weather Stations

Elev 308 ft 47.97 °N, 4.17 °W | Updated 30 minutes ago

Scattered Clouds
Scattered Clouds
64 °F
Feels Like 64 °F
N
0
Wind Variable Wind from North

Today
High -- | Low -- °F
--% Chance of Precip.
Yesterday
High -- | Low -- °F
Precip. -- in
8:00 AM 8:19 PM
Waning Crescent, 16% visible
Pressure 29.86 in
Visibility -9999.0 miles
Clouds Few 600 ft
Scattered Clouds 14000 ft
Dew Point 63 °F
Humidity 94%
Rainfall 0.00 in
Snow Depth Not available.
UV 0 out of 12
Pollen Not available.
Air Quality Not available.
Flu Activity Not available.
METAR LFRQ 192130Z AUTO 00000KT 3400 BR FEW006 SCT140 18/17 Q1011

More Conditions Fewer Conditions

Pressure 29.86 in
Visibility -9999.0 miles
Clouds Few 600 ft
Scattered Clouds 14000 ft
Dew Point 63 °F
Humidity 94%
Rainfall 0.00 in
Snow Depth Not available.
UV 0 out of 12
Pollen Not available.
Air Quality Not available.
Flu Activity Not available.
METAR LFRQ 192130Z AUTO 00000KT 3400 BR FEW006 SCT140 18/17 Q1011

More Conditions Fewer Conditions

10-Day Weather Forecast

Almanac

Astronomy

Sep. 20, 2014 Rise Set
Actual Time 8:00 AM CEST 8:19 PM CEST
Civil Twilight 7:29 AM CEST 8:50 PM CEST
Nautical Twilight 6:52 AM CEST 9:26 PM CEST
Astronomical Twilight 6:14 AM CEST 10:04 PM CEST
Moon 4:13 AM CEST (9/20) 6:25 PM CEST (9/20)
Length of Visible Light 13h 20m
Length of Day
12h 18m
Tomorrow will be 3m 26s shorter.
Waning Crescent, 16% of the Moon is Illuminated
Sep 19
Waning Crescent
Sep 24
New
Oct 1
First Quarter
Oct 8
Full
Oct 15
Last Quarter

Yesterday's Extremes

Country Highs Country Lows

Community

WunderPhotos

Upload Photos

1,754,718 photos uploaded!

WunderBlogs® & News

By Dr. Jeff Masters
Director of Meteorology, Weather Underground
By Kari Strenfel
Meteorologist, Weather Underground
By Christopher C. Burt
Weather Historian, Weather Underground
September 19, 2014
September 19, 2014
September 19, 2014

Nearby

Snow Depth

Not available.

Earthquake Activity

City Distance Mag. Time & Date
No recent earthquake activity has been reported nearby.
Minimum magnitude displayed is 2.5.

Coastal Water Temperatures

Place Temperature
No Stations Reporting

Nearby Weather Stations